Time;durP1;ratioP1;P1;durP2;ratioP2;P2;SDS_P1;SDS_P2;PMS_P1;PMS_P2;Temp;Humidity;BMP_temperature;BMP_pressure;BME280_temperature;BME280_humidity;BME280_pressure;Samples;Min_cycle;Max_cycle;Signal;HPM_P1;HPM_P2
2023/06/21 00:00:34;;;;;;;;;;;19.90;99.90;;;;;;4999343;28;19928;-70
2023/06/21 00:03:00;;;;;;;;;;;19.90;99.90;;;;;;5023557;28;20422;-70
2023/06/21 00:05:26;;;;;;;;;;;19.90;99.90;;;;;;5008486;28;20418;-70
2023/06/21 00:07:53;;;;;;;;;;;19.90;99.90;;;;;;5005676;28;19921;-70
2023/06/21 00:10:20;;;;;;;;;;;19.80;99.90;;;;;;5003742;28;19917;-70
2023/06/21 00:12:46;;;;;;;;;;;19.90;99.90;;;;;;5006092;28;20016;-70
2023/06/21 00:15:11;;;;;;;;;;;19.80;99.90;;;;;;5005887;28;20298;-70
2023/06/21 00:17:37;;;;;;;;;;;19.80;99.90;;;;;;5008001;28;19929;-70
2023/06/21 00:20:03;;;;;;;;;;;19.80;99.90;;;;;;5008978;28;19924;-70
2023/06/21 00:22:29;;;;;;;;;;;19.80;99.90;;;;;;5010342;28;19917;-70
2023/06/21 00:24:57;;;;;;;;;;;19.80;99.90;;;;;;5007666;28;20066;-71
2023/06/21 00:27:22;;;;;;;;;;;19.70;99.90;;;;;;5018068;28;19924;-70
2023/06/21 00:29:48;;;;;;;;;;;19.70;99.90;;;;;;5005239;28;19917;-70
2023/06/21 00:32:13;;;;;;;;;;;19.70;99.90;;;;;;5018599;28;19917;-70
2023/06/21 00:34:39;;;;;;;;;;;19.70;99.90;;;;;;5017725;28;20138;-71
2023/06/21 00:37:05;;;;;;;;;;;19.60;99.90;;;;;;5003028;28;19917;-70
2023/06/21 00:39:30;;;;;;;;;;;19.60;99.90;;;;;;5020480;28;19960;-71
2023/06/21 00:41:56;;;;;;;;;;;19.70;99.90;;;;;;5018435;28;19941;-72
2023/06/21 00:44:22;;;;;;;;;;;19.60;99.90;;;;;;5022868;28;19917;-71
2023/06/21 00:46:48;;;;;;;;;;;19.60;99.90;;;;;;5004334;28;20467;-71
2023/06/21 00:49:14;;;;;;;;;;;19.60;99.90;;;;;;5026324;28;19925;-70
2023/06/21 00:51:41;;;;;;;;;;;19.60;99.90;;;;;;5020091;28;20420;-70
2023/06/21 00:54:06;;;;;;;;;;;19.60;99.90;;;;;;5020543;28;20510;-71
2023/06/21 00:56:35;;;;;;;;;;;19.60;99.90;;;;;;5023500;28;19998;-72
2023/06/21 00:59:04;;;;;;;;;;;19.60;99.90;;;;;;5007350;28;19976;-70
2023/06/21 01:01:30;;;;;;;;;;;19.60;99.90;;;;;;5009382;28;19925;-70
2023/06/21 01:03:57;;;;;;;;;;;19.60;99.90;;;;;;5023168;28;19927;-71
2023/06/21 01:06:27;;;;;;;;;;;19.60;99.90;;;;;;5026848;28;19955;-70
2023/06/21 01:09:03;;;;;;;;;;;19.60;99.90;;;;;;5009195;28;20343;-71
2023/06/21 01:11:31;;;;;;;;;;;19.60;99.90;;;;;;5024299;28;19952;-70
2023/06/21 01:13:56;;;;;;;;;;;19.60;99.90;;;;;;5026027;28;19921;-70
2023/06/21 01:16:23;;;;;;;;;;;19.60;99.90;;;;;;5007473;28;20445;-70
2023/06/21 01:18:51;;;;;;;;;;;19.60;99.90;;;;;;5000931;28;20298;-70
2023/06/21 01:21:18;;;;;;;;;;;19.60;99.90;;;;;;4993194;28;19928;-71
2023/06/21 01:24:00;;;;;;;;;;;19.60;99.90;;;;;;5003986;28;20341;-70
2023/06/21 01:26:32;;;;;;;;;;;19.60;99.90;;;;;;5000789;28;20709;-71
2023/06/21 01:29:06;;;;;;;;;;;19.60;99.90;;;;;;4998796;28;19996;-71
2023/06/21 01:31:32;;;;;;;;;;;19.60;99.90;;;;;;5017414;28;20367;-71
2023/06/21 01:33:58;;;;;;;;;;;19.60;99.90;;;;;;5005312;28;19924;-72
2023/06/21 01:36:24;;;;;;;;;;;19.60;99.90;;;;;;5005359;28;20098;-71
2023/06/21 01:38:53;;;;;;;;;;;19.60;99.90;;;;;;5025769;28;19924;-71
2023/06/21 01:41:19;;;;;;;;;;;19.60;99.90;;;;;;5007061;28;19921;-71
2023/06/21 01:43:45;;;;;;;;;;;19.60;99.90;;;;;;5006582;28;19917;-71
2023/06/21 01:46:11;;;;;;;;;;;19.60;99.90;;;;;;5023537;28;20442;-71
2023/06/21 01:48:37;;;;;;;;;;;19.50;99.90;;;;;;5023067;28;20067;-71
2023/06/21 01:51:04;;;;;;;;;;;19.60;99.90;;;;;;5027184;28;20000;-71
2023/06/21 01:53:30;;;;;;;;;;;19.50;99.90;;;;;;4989678;28;19925;-71
2023/06/21 01:55:57;;;;;;;;;;;19.50;99.90;;;;;;5022268;28;20301;-71
2023/06/21 01:58:22;;;;;;;;;;;19.50;99.90;;;;;;5019763;28;19925;-71
2023/06/21 02:00:48;;;;;;;;;;;19.50;99.90;;;;;;5020229;28;19921;-71
2023/06/21 02:03:15;;;;;;;;;;;19.40;99.90;;;;;;5025165;28;19921;-70
2023/06/21 02:05:41;;;;;;;;;;;19.40;99.90;;;;;;5009317;28;19921;-71
2023/06/21 02:08:11;;;;;;;;;;;19.40;99.90;;;;;;5024891;28;19971;-71
2023/06/21 02:10:37;;;;;;;;;;;19.30;99.90;;;;;;5006593;28;20429;-71
2023/06/21 02:13:02;;;;;;;;;;;19.30;99.90;;;;;;5007363;28;19929;-71
2023/06/21 02:15:28;;;;;;;;;;;19.30;99.90;;;;;;5022961;28;19917;-70
2023/06/21 02:17:53;;;;;;;;;;;19.30;99.90;;;;;;5026568;28;19917;-71
2023/06/21 02:20:20;;;;;;;;;;;19.20;99.90;;;;;;5006230;28;20017;-71
2023/06/21 02:22:46;;;;;;;;;;;19.10;99.90;;;;;;5004864;28;19917;-70
2023/06/21 02:25:13;;;;;;;;;;;19.10;99.90;;;;;;5002019;28;20409;-71
2023/06/21 02:27:39;;;;;;;;;;;19.10;99.90;;;;;;5012632;28;19935;-71
2023/06/21 02:30:05;;;;;;;;;;;19.00;99.90;;;;;;5028079;28;20294;-72
2023/06/21 02:32:31;;;;;;;;;;;19.00;99.90;;;;;;5010351;28;22049;-70
2023/06/21 02:34:56;;;;;;;;;;;19.00;99.90;;;;;;5025835;28;19927;-71
2023/06/21 02:37:22;;;;;;;;;;;19.00;99.90;;;;;;5024367;28;19943;-71
2023/06/21 02:39:47;;;;;;;;;;;18.90;99.90;;;;;;5019948;28;19918;-71
2023/06/21 02:42:13;;;;;;;;;;;18.90;99.90;;;;;;5021346;28;19929;-71
2023/06/21 02:44:39;;;;;;;;;;;18.90;99.90;;;;;;5010196;28;20446;-71
2023/06/21 02:47:04;;;;;;;;;;;18.90;99.90;;;;;;5006947;28;20326;-70
2023/06/21 02:49:35;;;;;;;;;;;18.90;99.90;;;;;;5010569;28;20020;-71
2023/06/21 02:52:00;;;;;;;;;;;18.80;99.90;;;;;;5009493;28;20112;-71
2023/06/21 02:54:26;;;;;;;;;;;18.80;99.90;;;;;;5019764;28;20131;-71
2023/06/21 02:56:51;;;;;;;;;;;18.70;99.90;;;;;;5025401;28;20283;-71
2023/06/21 02:59:17;;;;;;;;;;;18.70;99.90;;;;;;5008912;28;20341;-71
2023/06/21 03:01:44;;;;;;;;;;;18.70;99.90;;;;;;5009967;28;19921;-71
2023/06/21 03:04:09;;;;;;;;;;;18.70;99.90;;;;;;5000108;28;19963;-70
2023/06/21 03:06:35;;;;;;;;;;;18.70;99.90;;;;;;5029206;28;19921;-71
2023/06/21 03:09:00;;;;;;;;;;;18.80;99.90;;;;;;5010450;28;20430;-70
2023/06/21 03:11:26;;;;;;;;;;;18.70;99.90;;;;;;5025679;28;19924;-70
2023/06/21 03:13:51;;;;;;;;;;;18.70;99.90;;;;;;5010533;28;20508;-71
2023/06/21 03:16:17;;;;;;;;;;;18.70;99.90;;;;;;5007832;28;19948;-71
2023/06/21 03:18:42;;;;;;;;;;;18.70;99.90;;;;;;5020502;28;20260;-70
2023/06/21 03:21:08;;;;;;;;;;;18.70;99.90;;;;;;5023916;28;20375;-71
2023/06/21 03:23:34;;;;;;;;;;;18.70;99.90;;;;;;5004956;28;20677;-70
2023/06/21 03:25:59;;;;;;;;;;;18.60;99.90;;;;;;5008251;28;20418;-71
2023/06/21 03:28:25;;;;;;;;;;;18.60;99.90;;;;;;5002202;28;19937;-71
2023/06/21 03:30:50;;;;;;;;;;;18.60;99.90;;;;;;5004440;28;20291;-72
2023/06/21 03:33:16;;;;;;;;;;;18.60;99.90;;;;;;5006630;28;19925;-70
2023/06/21 03:35:42;;;;;;;;;;;18.60;99.90;;;;;;5018900;28;20424;-70
2023/06/21 03:38:08;;;;;;;;;;;18.60;99.90;;;;;;5023489;28;20453;-71
2023/06/21 03:40:33;;;;;;;;;;;18.60;99.90;;;;;;5028410;28;20023;-71
2023/06/21 03:42:59;;;;;;;;;;;18.60;99.90;;;;;;5023893;28;19928;-71
2023/06/21 03:45:24;;;;;;;;;;;18.60;99.90;;;;;;5005923;28;20395;-71
2023/06/21 03:47:50;;;;;;;;;;;18.60;99.90;;;;;;5025754;28;20050;-70
2023/06/21 03:50:15;;;;;;;;;;;18.60;99.90;;;;;;5025627;28;19932;-70
2023/06/21 03:52:41;;;;;;;;;;;18.60;99.90;;;;;;5013303;28;20314;-71
2023/06/21 03:55:07;;;;;;;;;;;18.60;99.90;;;;;;5027345;28;19921;-71
2023/06/21 03:57:32;;;;;;;;;;;18.50;99.90;;;;;;5005898;28;19917;-71
2023/06/21 03:59:58;;;;;;;;;;;18.50;99.90;;;;;;5011350;28;20510;-70
2023/06/21 04:02:24;;;;;;;;;;;18.50;99.90;;;;;;5007499;28;19925;-71
2023/06/21 04:04:49;;;;;;;;;;;18.50;99.90;;;;;;5023632;28;20369;-71
2023/06/21 04:07:19;;;;;;;;;;;18.50;99.90;;;;;;5024872;28;20144;-70
2023/06/21 04:09:45;;;;;;;;;;;18.50;99.90;;;;;;5017381;28;19917;-71
2023/06/21 04:12:11;;;;;;;;;;;18.50;99.90;;;;;;5003602;28;19952;-70
2023/06/21 04:14:37;;;;;;;;;;;18.50;99.90;;;;;;5021497;28;19921;-70
2023/06/21 04:17:02;;;;;;;;;;;18.50;99.90;;;;;;5023675;28;19918;-71
2023/06/21 04:19:28;;;;;;;;;;;18.50;99.90;;;;;;5021789;28;19921;-70
2023/06/21 04:21:54;;;;;;;;;;;18.40;99.90;;;;;;5025054;28;20347;-71
2023/06/21 04:24:19;;;;;;;;;;;18.40;99.90;;;;;;5015082;28;19996;-70
2023/06/21 04:26:45;;;;;;;;;;;18.40;99.90;;;;;;4988191;28;20371;-71
2023/06/21 04:29:10;;;;;;;;;;;18.40;99.90;;;;;;5004813;28;19917;-70
2023/06/21 04:31:37;;;;;;;;;;;18.40;99.90;;;;;;5022577;28;19917;-70
2023/06/21 04:34:03;;;;;;;;;;;18.40;99.90;;;;;;5006371;28;20371;-71
2023/06/21 04:36:32;;;;;;;;;;;18.40;99.90;;;;;;5006805;28;19932;-70
2023/06/21 04:38:57;;;;;;;;;;;18.40;99.90;;;;;;5006692;28;20433;-71
2023/06/21 04:41:23;;;;;;;;;;;18.40;99.90;;;;;;5009270;28;19925;-70
2023/06/21 04:43:49;;;;;;;;;;;18.50;99.90;;;;;;5007872;28;19983;-70
2023/06/21 04:46:17;;;;;;;;;;;18.40;99.90;;;;;;5022826;28;20401;-71
2023/06/21 04:48:44;;;;;;;;;;;18.40;99.90;;;;;;5007957;28;19924;-70
2023/06/21 04:51:15;;;;;;;;;;;18.40;99.90;;;;;;5025246;28;19964;-70
2023/06/21 04:53:41;;;;;;;;;;;18.40;99.90;;;;;;5004282;28;20012;-70
2023/06/21 04:56:07;;;;;;;;;;;18.40;99.90;;;;;;5004770;28;20259;-70
2023/06/21 04:58:35;;;;;;;;;;;18.40;99.90;;;;;;5006513;28;19917;-70
2023/06/21 05:01:01;;;;;;;;;;;18.40;99.90;;;;;;5006923;28;20129;-70
2023/06/21 05:03:26;;;;;;;;;;;18.50;99.90;;;;;;5024740;28;19917;-71
2023/06/21 05:05:52;;;;;;;;;;;18.50;99.90;;;;;;5004691;28;19917;-70
2023/06/21 05:08:18;;;;;;;;;;;18.50;99.90;;;;;;5015374;28;20007;-70
2023/06/21 05:10:43;;;;;;;;;;;18.50;99.90;;;;;;5009589;28;20289;-70
2023/06/21 05:13:09;;;;;;;;;;;18.50;99.90;;;;;;5026729;28;19924;-70
2023/06/21 05:15:34;;;;;;;;;;;18.60;99.90;;;;;;5024864;28;19921;-70
2023/06/21 05:18:00;;;;;;;;;;;18.60;99.90;;;;;;5017127;28;19925;-70
2023/06/21 05:20:25;;;;;;;;;;;18.60;99.90;;;;;;5009539;28;19925;-70
2023/06/21 05:22:51;;;;;;;;;;;18.60;99.90;;;;;;5005717;28;19917;-70
2023/06/21 05:25:17;;;;;;;;;;;18.60;99.90;;;;;;5021758;28;20375;-71
2023/06/21 05:27:43;;;;;;;;;;;18.60;99.90;;;;;;5022388;28;19956;-70
2023/06/21 05:30:08;;;;;;;;;;;18.60;99.90;;;;;;5022720;28;19992;-70
2023/06/21 05:32:34;;;;;;;;;;;18.70;99.90;;;;;;5007441;28;20019;-71
2023/06/21 05:34:59;;;;;;;;;;;18.70;99.90;;;;;;5007253;28;19920;-71
2023/06/21 05:37:25;;;;;;;;;;;18.70;99.90;;;;;;5008076;28;19917;-72
2023/06/21 05:39:51;;;;;;;;;;;18.70;99.90;;;;;;5026756;28;19925;-71
2023/06/21 05:42:16;;;;;;;;;;;18.80;99.90;;;;;;5024442;28;20441;-70
2023/06/21 05:44:42;;;;;;;;;;;18.70;99.90;;;;;;5026397;28;19997;-71
2023/06/21 05:47:07;;;;;;;;;;;18.80;99.90;;;;;;5002889;28;19918;-76
2023/06/21 05:49:33;;;;;;;;;;;18.80;99.90;;;;;;5006636;28;19921;-77
2023/06/21 05:51:59;;;;;;;;;;;18.80;99.90;;;;;;4998335;28;19924;-71
2023/06/21 05:54:24;;;;;;;;;;;18.80;99.90;;;;;;5006407;28;19928;-72
2023/06/21 05:56:50;;;;;;;;;;;18.80;99.90;;;;;;5008915;28;20261;-71
2023/06/21 05:59:15;;;;;;;;;;;18.90;99.90;;;;;;5002427;28;20028;-72
2023/06/21 06:01:41;;;;;;;;;;;18.90;99.90;;;;;;5012552;28;19967;-71
2023/06/21 06:04:07;;;;;;;;;;;18.90;99.90;;;;;;5030627;28;19917;-71
2023/06/21 06:06:38;;;;;;;;;;;19.00;99.90;;;;;;5020822;28;19928;-71
2023/06/21 06:09:04;;;;;;;;;;;19.00;99.90;;;;;;5010127;28;20310;-71
2023/06/21 06:11:30;;;;;;;;;;;19.00;99.90;;;;;;5025608;28;19918;-72
2023/06/21 06:13:55;;;;;;;;;;;19.00;99.90;;;;;;5023101;28;19921;-71
2023/06/21 06:16:21;;;;;;;;;;;19.10;99.90;;;;;;5027722;28;19921;-71
2023/06/21 06:18:46;;;;;;;;;;;19.10;99.90;;;;;;5026358;28;19921;-71
2023/06/21 06:21:12;;;;;;;;;;;19.20;99.90;;;;;;5022337;28;19921;-71
2023/06/21 06:23:37;;;;;;;;;;;19.10;99.90;;;;;;5018065;28;20007;-71
2023/06/21 06:26:03;;;;;;;;;;;19.20;99.90;;;;;;5026262;28;19924;-72
2023/06/21 06:28:28;;;;;;;;;;;19.30;99.90;;;;;;5013427;28;19921;-71
2023/06/21 06:30:54;;;;;;;;;;;19.30;99.90;;;;;;5000489;28;19921;-71
2023/06/21 06:33:19;;;;;;;;;;;19.30;99.90;;;;;;5001743;28;19927;-73
2023/06/21 06:35:45;;;;;;;;;;;19.30;99.90;;;;;;5022682;28;20503;-72
2023/06/21 06:38:10;;;;;;;;;;;19.40;99.90;;;;;;5032187;28;20095;-71
2023/06/21 06:40:36;;;;;;;;;;;19.40;99.90;;;;;;5008538;28;19928;-72
2023/06/21 06:43:02;;;;;;;;;;;19.50;99.90;;;;;;5001022;28;19925;-71
2023/06/21 06:45:27;;;;;;;;;;;19.50;99.90;;;;;;5017884;28;20020;-74
2023/06/21 06:47:53;;;;;;;;;;;19.60;99.90;;;;;;5001152;28;20062;-71
2023/06/21 06:50:18;;;;;;;;;;;19.60;99.90;;;;;;5022685;28;19964;-71
2023/06/21 06:52:44;;;;;;;;;;;19.70;99.90;;;;;;5007006;28;19916;-72
2023/06/21 06:55:09;;;;;;;;;;;19.70;99.90;;;;;;5012974;28;19966;-72
2023/06/21 06:57:36;;;;;;;;;;;19.80;99.90;;;;;;5028085;28;20012;-71
2023/06/21 07:00:02;;;;;;;;;;;19.80;99.90;;;;;;4999062;28;19920;-72
2023/06/21 07:02:28;;;;;;;;;;;19.80;99.90;;;;;;5024696;28;19928;-72
2023/06/21 07:04:54;;;;;;;;;;;19.80;99.90;;;;;;5024963;28;19917;-72
2023/06/21 07:07:19;;;;;;;;;;;19.90;99.90;;;;;;4993166;28;20280;-71
2023/06/21 07:09:45;;;;;;;;;;;19.90;99.90;;;;;;5026960;28;20020;-71
2023/06/21 07:12:10;;;;;;;;;;;19.90;99.90;;;;;;5006810;28;19924;-71
2023/06/21 07:14:36;;;;;;;;;;;20.00;99.90;;;;;;5005985;28;20112;-70
2023/06/21 07:17:02;;;;;;;;;;;20.00;99.90;;;;;;5004496;28;19927;-72
2023/06/21 07:19:27;;;;;;;;;;;20.10;99.90;;;;;;5021948;28;20007;-71
2023/06/21 07:21:53;;;;;;;;;;;20.10;99.90;;;;;;5024997;28;19921;-72
2023/06/21 07:24:18;;;;;;;;;;;20.10;99.90;;;;;;5019122;28;19952;-71
2023/06/21 07:26:44;;;;;;;;;;;20.20;99.90;;;;;;5004998;28;20139;-71
2023/06/21 07:29:09;;;;;;;;;;;20.20;99.90;;;;;;5019023;28;19983;-71
2023/06/21 07:31:35;;;;;;;;;;;20.20;99.90;;;;;;5019186;28;19948;-71
2023/06/21 07:34:01;;;;;;;;;;;20.20;99.90;;;;;;5002826;28;20374;-71
2023/06/21 07:36:26;;;;;;;;;;;20.30;99.90;;;;;;5024283;28;19937;-71
2023/06/21 07:38:52;;;;;;;;;;;20.30;99.90;;;;;;5030342;28;20405;-70
2023/06/21 07:41:17;;;;;;;;;;;20.30;99.90;;;;;;5026454;28;19932;-71
2023/06/21 07:43:43;;;;;;;;;;;20.40;99.90;;;;;;5017660;28;19917;-71
2023/06/21 07:46:09;;;;;;;;;;;20.40;99.90;;;;;;5009618;28;19924;-71
2023/06/21 07:48:34;;;;;;;;;;;20.50;99.90;;;;;;5024165;28;20302;-72
2023/06/21 07:51:00;;;;;;;;;;;20.50;99.90;;;;;;5002936;28;19918;-71
2023/06/21 07:53:26;;;;;;;;;;;20.60;99.90;;;;;;5026628;28;19924;-71
2023/06/21 07:55:51;;;;;;;;;;;20.60;99.90;;;;;;5007397;28;19921;-71
2023/06/21 07:58:17;;;;;;;;;;;20.60;99.90;;;;;;5010279;28;19917;-71
2023/06/21 08:00:42;;;;;;;;;;;20.70;99.90;;;;;;5000077;28;19921;-71
2023/06/21 08:03:08;;;;;;;;;;;20.70;99.90;;;;;;4999830;28;19921;-71
2023/06/21 08:05:33;;;;;;;;;;;20.80;99.90;;;;;;5028126;28;19994;-71
2023/06/21 08:08:01;;;;;;;;;;;20.90;99.90;;;;;;5004559;28;19917;-70
2023/06/21 08:10:27;;;;;;;;;;;20.90;99.90;;;;;;5028991;28;20007;-70
2023/06/21 08:12:52;;;;;;;;;;;20.90;99.90;;;;;;5020067;28;20105;-70
2023/06/21 08:15:18;;;;;;;;;;;21.00;99.90;;;;;;5004981;28;19917;-71
2023/06/21 08:17:43;;;;;;;;;;;21.00;99.90;;;;;;4989214;28;20013;-71
2023/06/21 08:20:09;;;;;;;;;;;21.10;99.90;;;;;;5003463;28;20395;-70
2023/06/21 08:22:35;;;;;;;;;;;21.10;99.90;;;;;;5021272;28;19964;-70
2023/06/21 08:25:01;;;;;;;;;;;21.10;99.90;;;;;;5027078;28;20022;-70
2023/06/21 08:27:27;;;;;;;;;;;21.10;99.90;;;;;;5010036;28;19917;-71
2023/06/21 08:29:52;;;;;;;;;;;21.20;99.90;;;;;;4999492;28;21739;-70
2023/06/21 08:32:19;;;;;;;;;;;21.30;99.90;;;;;;5004927;28;19917;-70
2023/06/21 08:34:45;;;;;;;;;;;21.40;99.90;;;;;;5023442;28;19921;-70
2023/06/21 08:37:11;;;;;;;;;;;21.50;99.90;;;;;;5002221;28;20401;-71
2023/06/21 08:39:36;;;;;;;;;;;21.60;99.90;;;;;;5006562;28;19975;-70
2023/06/21 08:42:02;;;;;;;;;;;21.60;99.90;;;;;;4995483;28;19961;-72
2023/06/21 08:44:28;;;;;;;;;;;21.60;99.90;;;;;;5017258;28;20585;-70
2023/06/21 08:46:54;;;;;;;;;;;21.70;99.90;;;;;;4998648;28;19936;-70
2023/06/21 08:49:20;;;;;;;;;;;21.80;99.90;;;;;;4995208;28;19975;-71
2023/06/21 08:51:47;;;;;;;;;;;21.90;99.90;;;;;;5007083;28;19924;-70
2023/06/21 08:54:13;;;;;;;;;;;21.90;99.90;;;;;;5003295;28;19921;-71
2023/06/21 08:56:41;;;;;;;;;;;21.90;99.90;;;;;;5023305;28;20379;-70
2023/06/21 08:59:16;;;;;;;;;;;21.90;99.90;;;;;;4998410;28;19921;-70
2023/06/21 09:01:48;;;;;;;;;;;22.00;99.90;;;;;;5013240;28;19925;-70
2023/06/21 09:04:15;;;;;;;;;;;22.20;99.90;;;;;;5006491;28;20321;-70
2023/06/21 09:06:42;;;;;;;;;;;22.20;99.90;;;;;;5022973;28;20390;-70
2023/06/21 09:09:08;;;;;;;;;;;22.30;99.90;;;;;;5008211;28;19917;-70
2023/06/21 09:11:36;;;;;;;;;;;22.40;99.90;;;;;;5026150;28;19971;-70
2023/06/21 09:14:02;;;;;;;;;;;22.50;99.90;;;;;;5001068;28;19943;-70
2023/06/21 09:16:27;;;;;;;;;;;22.60;99.90;;;;;;4997094;28;20445;-71
2023/06/21 09:18:53;;;;;;;;;;;22.70;99.90;;;;;;4998238;28;19921;-70
2023/06/21 09:21:20;;;;;;;;;;;22.80;99.90;;;;;;4996346;28;20305;-71
2023/06/21 09:23:45;;;;;;;;;;;22.80;99.90;;;;;;5003153;28;19967;-70
2023/06/21 09:26:11;;;;;;;;;;;22.90;99.90;;;;;;5020734;28;19921;-71
2023/06/21 09:28:37;;;;;;;;;;;22.90;99.90;;;;;;5025391;28;19928;-72
2023/06/21 09:31:03;;;;;;;;;;;22.90;99.90;;;;;;4999308;28;19988;-71
2023/06/21 09:33:29;;;;;;;;;;;22.80;99.90;;;;;;5000911;28;19917;-72
2023/06/21 09:35:56;;;;;;;;;;;23.00;99.90;;;;;;5007595;28;19975;-71
2023/06/21 09:38:21;;;;;;;;;;;23.10;99.90;;;;;;5024584;28;19969;-72
2023/06/21 09:40:47;;;;;;;;;;;23.10;99.90;;;;;;5014841;28;20379;-70
2023/06/21 09:43:12;;;;;;;;;;;23.10;99.90;;;;;;5015178;28;19936;-71
2023/06/21 09:45:38;;;;;;;;;;;23.20;99.90;;;;;;5016067;28;19921;-72
2023/06/21 09:48:04;;;;;;;;;;;23.10;99.90;;;;;;5006996;28;19928;-72
2023/06/21 09:50:32;;;;;;;;;;;23.10;99.90;;;;;;5009003;28;19917;-70
2023/06/21 09:52:58;;;;;;;;;;;23.20;99.90;;;;;;5003612;28;19983;-74
2023/06/21 09:55:24;;;;;;;;;;;23.20;99.90;;;;;;5001680;28;19964;-71
2023/06/21 09:57:51;;;;;;;;;;;23.20;99.90;;;;;;5022621;28;19926;-71
2023/06/21 10:00:17;;;;;;;;;;;23.10;99.90;;;;;;5022276;28;19928;-70
2023/06/21 10:02:43;;;;;;;;;;;23.10;99.90;;;;;;4998948;28;19917;-70
2023/06/21 10:05:18;;;;;;;;;;;23.20;99.90;;;;;;4989671;28;19921;-71
2023/06/21 10:07:44;;;;;;;;;;;23.30;99.90;;;;;;4998136;28;19925;-70
2023/06/21 10:10:10;;;;;;;;;;;23.50;99.90;;;;;;5010774;28;19968;-72
2023/06/21 10:12:36;;;;;;;;;;;23.60;99.90;;;;;;5015028;28;20331;-71
2023/06/21 10:15:02;;;;;;;;;;;23.60;99.90;;;;;;5017176;28;20386;-73
2023/06/21 10:17:29;;;;;;;;;;;23.60;99.90;;;;;;4995151;28;20271;-72
2023/06/21 10:19:56;;;;;;;;;;;23.70;99.90;;;;;;5016232;28;19917;-73
2023/06/21 10:22:22;;;;;;;;;;;23.80;99.90;;;;;;5032955;22;19924;-72
2023/06/21 10:24:51;;;;;;;;;;;23.80;99.90;;;;;;4966073;28;20020;-72
2023/06/21 10:27:20;;;;;;;;;;;23.80;99.90;;;;;;4959087;28;20339;-72
2023/06/21 10:29:48;;;;;;;;;;;23.80;99.90;;;;;;4970786;28;19917;-73
2023/06/21 10:32:14;;;;;;;;;;;23.80;99.90;;;;;;4976034;28;20008;-71
2023/06/21 10:34:39;;;;;;;;;;;23.80;99.90;;;;;;4990687;28;20340;-73
2023/06/21 10:37:08;;;;;;;;;;;23.90;99.90;;;;;;4970175;28;20367;-71
2023/06/21 10:39:33;;;;;;;;;;;23.90;99.90;;;;;;4971553;28;20409;-71
2023/06/21 10:41:59;;;;;;;;;;;24.10;99.90;;;;;;4966737;28;19984;-71
2023/06/21 10:44:28;;;;;;;;;;;24.30;99.90;;;;;;4971592;28;19917;-71
2023/06/21 10:46:54;;;;;;;;;;;24.40;99.90;;;;;;4956628;28;19922;-71
2023/06/21 10:49:19;;;;;;;;;;;24.60;99.90;;;;;;4977826;28;19918;-71
2023/06/21 10:51:45;;;;;;;;;;;24.60;99.90;;;;;;4943541;28;19929;-71
2023/06/21 10:54:12;;;;;;;;;;;24.70;99.90;;;;;;4984143;28;20249;-71
2023/06/21 10:56:38;;;;;;;;;;;24.80;99.90;;;;;;4959461;28;19997;-72
2023/06/21 10:59:04;;;;;;;;;;;24.90;99.90;;;;;;4957235;28;19975;-73
2023/06/21 11:01:29;;;;;;;;;;;25.00;99.90;;;;;;4973885;28;19925;-71
2023/06/21 11:03:56;;;;;;;;;;;25.00;99.90;;;;;;4979395;28;20163;-72
2023/06/21 11:06:28;;;;;;;;;;;25.10;99.90;;;;;;4963824;28;20267;-72
2023/06/21 11:09:05;;;;;;;;;;;25.20;99.90;;;;;;4962117;28;19981;-72
2023/06/21 11:11:32;;;;;;;;;;;25.20;99.90;;;;;;4959475;28;20333;-71
2023/06/21 11:14:00;;;;;;;;;;;25.10;99.90;;;;;;4950121;28;19926;-71
2023/06/21 11:16:26;;;;;;;;;;;25.00;99.90;;;;;;4983883;28;20332;-71
2023/06/21 11:18:55;;;;;;;;;;;25.00;99.90;;;;;;4961626;28;20040;-71
2023/06/21 11:21:34;;;;;;;;;;;25.10;99.90;;;;;;4967634;28;19930;-71
2023/06/21 11:24:04;;;;;;;;;;;25.20;99.90;;;;;;4953498;28;19972;-71
2023/06/21 11:26:50;;;;;;;;;;;25.30;99.90;;;;;;4962197;28;19945;-70
2023/06/21 11:29:15;;;;;;;;;;;25.30;99.90;;;;;;4965582;28;19964;-71
2023/06/21 11:31:41;;;;;;;;;;;25.40;99.90;;;;;;4968061;28;19956;-72
2023/06/21 11:34:07;;;;;;;;;;;25.40;99.90;;;;;;4966512;28;20303;-72
2023/06/21 11:36:34;;;;;;;;;;;25.40;99.90;;;;;;4969116;28;20388;-72
2023/06/21 11:39:10;;;;;;;;;;;25.40;99.90;;;;;;4962596;28;19925;-71
2023/06/21 11:41:45;;;;;;;;;;;25.40;99.90;;;;;;4967823;28;19976;-71
2023/06/21 11:44:10;;;;;;;;;;;25.50;99.90;;;;;;4950621;28;19925;-71
2023/06/21 11:46:36;;;;;;;;;;;25.60;99.90;;;;;;4966561;28;20427;-71
2023/06/21 11:49:02;;;;;;;;;;;25.70;99.90;;;;;;4979382;28;19925;-71
2023/06/21 11:51:28;;;;;;;;;;;25.80;99.90;;;;;;4968430;28;19918;-71
2023/06/21 11:53:54;;;;;;;;;;;25.90;99.90;;;;;;4966155;28;20108;-70
2023/06/21 11:56:20;;;;;;;;;;;25.90;99.90;;;;;;4983306;28;19926;-71
2023/06/21 11:58:47;;;;;;;;;;;25.90;99.90;;;;;;4966934;28;19988;-71
2023/06/21 12:01:13;;;;;;;;;;;25.90;99.90;;;;;;4967318;28;19992;-71
2023/06/21 12:03:39;;;;;;;;;;;26.00;99.90;;;;;;4975289;28;19917;-71
2023/06/21 12:06:04;;;;;;;;;;;26.20;99.90;;;;;;4959824;28;20817;-72
2023/06/21 12:08:39;;;;;;;;;;;26.30;99.90;;;;;;4967014;28;20343;-71
2023/06/21 12:11:06;;;;;;;;;;;26.40;99.90;;;;;;4962388;28;19917;-71
2023/06/21 12:13:32;;;;;;;;;;;26.50;99.90;;;;;;4962605;28;19930;-71
2023/06/21 12:15:59;;;;;;;;;;;26.60;99.90;;;;;;4979399;28;19917;-72
2023/06/21 12:18:25;;;;;;;;;;;26.70;99.90;;;;;;4965559;28;19961;-72
2023/06/21 12:20:53;;;;;;;;;;;26.70;99.90;;;;;;4969846;28;19925;-71
2023/06/21 12:23:20;;;;;;;;;;;26.50;99.90;;;;;;4986771;28;19918;-72
2023/06/21 12:25:47;;;;;;;;;;;26.30;99.90;;;;;;4959158;28;19922;-72
2023/06/21 12:28:13;;;;;;;;;;;26.10;99.90;;;;;;4941090;28;19917;-72
2023/06/21 12:30:46;;;;;;;;;;;26.00;99.90;;;;;;4972901;28;19964;-72
2023/06/21 12:33:11;;;;;;;;;;;25.90;99.90;;;;;;4961464;28;20256;-71
2023/06/21 12:35:37;;;;;;;;;;;25.70;99.90;;;;;;4956732;28;20012;-73
2023/06/21 12:38:13;;;;;;;;;;;25.60;99.90;;;;;;4978868;28;20012;-71
2023/06/21 12:40:51;;;;;;;;;;;25.60;99.90;;;;;;4956987;28;20000;-71
2023/06/21 12:43:29;;;;;;;;;;;25.60;99.90;;;;;;4955421;28;19926;-71
2023/06/21 12:45:55;;;;;;;;;;;25.60;99.90;;;;;;4937923;28;19918;-72
2023/06/21 12:48:20;;;;;;;;;;;25.60;99.90;;;;;;4951426;28;20298;-72
2023/06/21 12:50:46;;;;;;;;;;;25.70;99.90;;;;;;4973094;28;19918;-71
2023/06/21 12:53:11;;;;;;;;;;;25.60;99.90;;;;;;4950711;28;19926;-71
2023/06/21 12:55:45;;;;;;;;;;;25.50;99.90;;;;;;4960234;28;20465;-71
2023/06/21 12:58:11;;;;;;;;;;;25.40;99.90;;;;;;4965442;28;20024;-72
2023/06/21 13:00:36;;;;;;;;;;;25.20;99.90;;;;;;4964454;28;20016;-72
2023/06/21 13:03:02;;;;;;;;;;;25.10;99.90;;;;;;4960637;28;20280;-71
2023/06/21 13:05:27;;;;;;;;;;;24.90;99.90;;;;;;4975923;28;20259;-73
2023/06/21 13:07:53;;;;;;;;;;;24.90;99.90;;;;;;4959757;28;19941;-71
2023/06/21 13:10:18;;;;;;;;;;;25.00;99.90;;;;;;4981364;28;20299;-72
2023/06/21 13:12:44;;;;;;;;;;;25.00;99.90;;;;;;4959103;28;19967;-71
2023/06/21 13:15:10;;;;;;;;;;;25.10;99.90;;;;;;4953528;28;19929;-71
2023/06/21 13:17:37;;;;;;;;;;;25.20;99.90;;;;;;4980209;28;19917;-71
2023/06/21 13:20:04;;;;;;;;;;;25.20;99.90;;;;;;4962644;28;19928;-72
2023/06/21 13:22:30;;;;;;;;;;;25.10;99.90;;;;;;4949565;28;19976;-71
2023/06/21 13:24:56;;;;;;;;;;;25.00;99.90;;;;;;4967271;28;20174;-73
2023/06/21 13:27:21;;;;;;;;;;;24.90;99.90;;;;;;4952434;28;19917;-71
2023/06/21 13:29:47;;;;;;;;;;;24.80;99.90;;;;;;4968410;28;20363;-71
2023/06/21 13:32:12;;;;;;;;;;;24.80;99.90;;;;;;4960341;28;20171;-71
2023/06/21 13:34:38;;;;;;;;;;;24.80;99.90;;;;;;4964024;28;19925;-71
2023/06/21 13:37:04;;;;;;;;;;;24.80;99.90;;;;;;4983646;28;19918;-71
2023/06/21 13:39:29;;;;;;;;;;;24.90;99.90;;;;;;4959418;28;20383;-71
2023/06/21 13:41:55;;;;;;;;;;;25.10;99.90;;;;;;4981810;28;19933;-72
2023/06/21 13:44:20;;;;;;;;;;;25.20;99.90;;;;;;4973801;28;19922;-72
2023/06/21 13:46:46;;;;;;;;;;;25.40;99.90;;;;;;4952674;28;19922;-72
2023/06/21 13:49:11;;;;;;;;;;;25.60;99.90;;;;;;4970497;28;19945;-72
2023/06/21 13:51:37;;;;;;;;;;;25.60;99.90;;;;;;4970270;28;20344;-72
2023/06/21 13:54:02;;;;;;;;;;;25.60;99.90;;;;;;4975191;28;19921;-71
2023/06/21 13:56:29;;;;;;;;;;;25.60;99.90;;;;;;4952452;28;19996;-73
2023/06/21 13:58:56;;;;;;;;;;;25.80;99.90;;;;;;4960067;28;19925;-72
2023/06/21 14:01:21;;;;;;;;;;;25.90;99.90;;;;;;4961982;28;19984;-72
2023/06/21 14:03:47;;;;;;;;;;;26.10;99.90;;;;;;4965684;28;19918;-72
2023/06/21 14:06:12;;;;;;;;;;;26.50;99.90;;;;;;4958983;28;19947;-71
2023/06/21 14:08:38;;;;;;;;;;;26.80;99.90;;;;;;4984450;28;19917;-72
2023/06/21 14:11:03;;;;;;;;;;;26.90;99.90;;;;;;4968654;28;20399;-72